Time;durP1;ratioP1;P1;durP2;ratioP2;P2;SDS_P1;SDS_P2;PMS_P1;PMS_P2;Temp;Humidity;BMP_temperature;BMP_pressure;BME280_temperature;BME280_humidity;BME280_pressure;Samples;Min_cycle;Max_cycle;Signal;HPM_P1;HPM_P2
2023/05/20 00:00:20;;;;;;;32.10;24.60;;;;;;;12.67;73.68;101492.57;108869;1277;22011;-83
2023/05/20 00:03:21;;;;;;;33.00;24.30;;;;;;;12.68;73.61;101492.89;108938;1281;22055;-82
2023/05/20 00:06:19;;;;;;;;;;;;;;;;;;;;;
2023/05/20 00:09:06;;;;;;;26.30;23.50;;;;;;;12.65;73.52;101489.80;109034;1281;22007;-82
2023/05/20 00:12:05;;;;;;;30.30;25.30;;;;;;;12.67;73.67;101492.02;108891;1280;22066;-84
2023/05/20 00:14:52;;;;;;;26.50;23.40;;;;;;;12.67;73.54;101491.00;109032;1276;21985;-84
2023/05/20 00:18:00;;;;;;;28.70;23.10;;;;;;;12.65;73.55;101488.41;109303;1276;22516;-83
2023/05/20 00:20:40;;;;;;;31.40;23.60;;;;;;;12.65;73.73;101484.92;109247;1274;22002;-84
2023/05/20 00:23:30;;;;;;;30.50;24.20;;;;;;;12.67;73.71;101483.45;109202;1280;23861;-83
2023/05/20 00:26:14;;;;;;;29.50;22.50;;;;;;;12.67;73.65;101483.31;108931;1280;22052;-83
2023/05/20 00:28:57;;;;;;;31.60;24.20;;;;;;;12.64;73.71;101482.52;108786;1282;22452;-82
2023/05/20 00:32:12;;;;;;;;;;;;;;;;;;;;;
2023/05/20 00:35:13;;;;;;;;;;;;;;;;;;;;;
2023/05/20 00:37:56;;;;;;;25.20;21.90;;;;;;;12.59;73.76;101477.60;106059;1288;3148004;-82
2023/05/20 00:40:57;;;;;;;26.90;22.80;;;;;;;12.57;73.87;101477.65;108509;1285;22039;-82
2023/05/20 00:43:50;;;;;;;28.70;24.80;;;;;;;12.56;73.95;101474.02;108710;1285;23056;-83
2023/05/20 00:46:51;;;;;;;;;;;;;;;;;;;;;
2023/05/20 00:49:52;;;;;;;27.10;23.90;;;;;;;12.55;74.11;101469.67;108503;1289;22022;-81
2023/05/20 00:52:45;;;;;;;26.90;24.30;;;;;;;12.56;74.19;101470.19;108128;1285;21992;-82
2023/05/20 00:55:42;;;;;;;28.40;25.50;;;;;;;12.56;74.33;101469.13;108284;1289;22018;-80
2023/05/20 00:59:02;;;;;;;28.90;24.90;;;;;;;12.54;74.29;101465.87;108122;1289;23644;-78
2023/05/20 01:01:40;;;;;;;28.20;24.30;;;;;;;12.57;74.25;101464.56;107975;1289;23440;-77
2023/05/20 01:04:46;;;;;;;;;;;;;;;;;;;;;
2023/05/20 01:07:27;;;;;;;;;;;;;;;12.57;74.36;101470.31;108737;1285;22748;-81
2023/05/20 01:10:03;;;;;;;25.50;22.40;;;;;;;12.49;74.52;101470.89;108784;1282;23175;-82
2023/05/20 01:12:47;;;;;;;24.20;21.30;;;;;;;12.49;74.41;101470.52;108445;1288;23780;-83
2023/05/20 01:15:24;;;;;;;24.70;22.10;;;;;;;12.51;74.52;101465.26;108029;1293;22014;-81
2023/05/20 01:18:17;;;;;;;29.60;23.50;;;;;;;12.53;74.54;101458.56;108136;1293;24363;-82
2023/05/20 01:21:01;;;;;;;26.00;20.30;;;;;;;12.56;74.38;101458.65;108421;1287;22016;-82
2023/05/20 01:23:39;;;;;;;26.60;21.60;;;;;;;12.58;74.40;101456.33;108542;1287;21999;-82
2023/05/20 01:26:25;;;;;;;23.80;21.40;;;;;;;12.60;74.55;101452.97;108416;1287;22007;-83
2023/05/20 01:29:03;;;;;;;27.40;20.90;;;;;;;12.57;74.42;101454.77;108566;1287;21992;-82
2023/05/20 01:31:41;;;;;;;25.10;20.70;;;;;;;12.55;74.27;101450.82;108667;1282;22382;-82
2023/05/20 01:34:30;;;;;;;24.70;20.30;;;;;;;12.54;74.38;101449.27;109109;1275;22058;-82
2023/05/20 01:37:08;;;;;;;24.70;22.10;;;;;;;12.54;74.57;101447.88;108968;1281;21993;-82
2023/05/20 01:39:53;;;;;;;23.60;20.60;;;;;;;12.55;74.53;101453.96;108766;1284;22016;-82
2023/05/20 01:42:30;;;;;;;25.00;21.70;;;;;;;12.56;74.56;101453.06;108737;1284;22003;-81
2023/05/20 01:45:15;;;;;;;27.10;21.70;;;;;;;12.54;74.61;101451.02;108711;1284;22214;-80
2023/05/20 01:47:53;;;;;;;25.90;22.00;;;;;;;12.54;74.51;101450.16;108742;1284;22020;-80
2023/05/20 01:50:30;;;;;;;23.90;21.30;;;;;;;12.54;74.62;101447.19;108767;1285;22005;-81
2023/05/20 01:53:12;;;;;;;23.60;21.20;;;;;;;12.52;74.67;101449.67;108771;1284;23615;-81
2023/05/20 01:56:10;;;;;;;;;;;;;;;12.50;74.57;101446.78;108885;1280;21952;-82
2023/05/20 01:58:54;;;;;;;28.30;22.40;;;;;;;12.42;74.85;101445.26;109144;1275;24323;-81
2023/05/20 02:01:29;;;;;;;30.80;22.60;;;;;;;12.45;74.98;101445.16;109191;1275;23041;-80
2023/05/20 02:04:02;;;;;;;24.80;22.20;;;;;;;12.51;74.96;101452.31;109208;1275;24908;-81
2023/05/20 02:06:59;;;;;;;24.40;21.30;;;;;;;12.52;74.98;101447.05;109266;1275;21981;-81
2023/05/20 02:09:33;;;;;;;28.00;23.20;;;;;;;12.55;74.93;101443.84;109236;1275;22458;-84
2023/05/20 02:12:16;;;;;;;23.00;20.50;;;;;;;12.58;74.84;101446.73;109250;1275;21999;-81
2023/05/20 02:14:49;;;;;;;22.30;19.70;;;;;;;12.59;74.92;101446.17;108754;1282;23050;-81
2023/05/20 02:17:25;;;;;;;23.20;20.80;;;;;;;12.59;74.82;101447.55;108772;1282;22008;-83
2023/05/20 02:19:56;;;;;;;23.30;19.60;;;;;;;12.60;74.89;101447.02;108674;1285;22015;-81
2023/05/20 02:22:32;;;;;;;28.50;21.10;;;;;;;12.61;74.76;101452.76;108272;1291;23041;-82
2023/05/20 02:25:15;;;;;;;23.00;18.60;;;;;;;12.61;74.90;101453.62;107865;1297;22005;-83
2023/05/20 02:28:04;;;;;;;21.40;18.70;;;;;;;12.59;74.81;101452.45;107651;1297;23719;-82
2023/05/20 02:30:42;;;;;;;23.10;20.20;;;;;;;12.60;74.62;101454.36;107756;1297;23770;-82
2023/05/20 02:33:24;;;;;;;22.20;19.10;;;;;;;12.61;74.91;101455.02;107939;1291;22384;-81
2023/05/20 02:36:07;;;;;;;;;;;;;;;12.61;74.77;101455.71;108237;1291;23635;-82
2023/05/20 02:38:38;;;;;;;22.90;20.70;;;;;;;12.54;75.05;101451.89;108466;1288;22350;-82
2023/05/20 02:41:20;;;;;;;24.70;19.90;;;;;;;12.53;75.04;101448.61;108702;1283;22720;-82
2023/05/20 02:43:54;;;;;;;26.10;21.10;;;;;;;12.54;74.76;101452.23;108786;1282;22454;-83
2023/05/20 02:46:32;;;;;;;22.10;19.50;;;;;;;12.56;74.98;101453.60;108836;1282;22185;-82
2023/05/20 02:49:18;;;;;;;22.40;20.00;;;;;;;12.59;74.93;101457.52;108696;1279;22003;-82
2023/05/20 02:51:55;;;;;;;22.90;20.40;;;;;;;12.60;74.91;101456.45;109096;1278;22008;-82
2023/05/20 02:54:29;;;;;;;24.40;21.50;;;;;;;12.61;74.85;101459.89;108577;1285;21998;-82
2023/05/20 02:57:18;;;;;;;27.00;21.50;;;;;;;12.63;75.00;101462.45;108455;1285;23061;-82
2023/05/20 03:00:05;;;;;;;;;;;;;;;;;;;;;
2023/05/20 03:02:46;;;;;;;28.20;20.80;;;;;;;12.65;75.02;101459.61;108441;1289;22006;-82
2023/05/20 03:05:20;;;;;;;27.40;20.40;;;;;;;12.69;74.98;101454.27;108090;1294;22016;-82
2023/05/20 03:08:11;;;;;;;23.40;21.00;;;;;;;12.72;74.99;101450.86;108070;1291;24344;-83
2023/05/20 03:10:57;;;;;;;28.20;22.50;;;;;;;12.72;74.99;101447.73;108029;1291;22001;-82
2023/05/20 03:13:39;;;;;;;25.70;21.80;;;;;;;12.71;74.93;101450.18;108448;1286;22008;-82
2023/05/20 03:16:34;;;;;;;25.90;21.40;;;;;;;12.69;74.83;101455.14;108086;1291;22000;-82
2023/05/20 03:19:10;;;;;;;26.40;22.10;;;;;;;12.68;74.87;101454.80;107633;1297;22211;-80
2023/05/20 03:21:49;;;;;;;24.30;21.80;;;;;;;12.69;74.87;101452.34;108250;1291;24569;-80
2023/05/20 03:24:22;;;;;;;25.20;22.50;;;;;;;12.71;74.88;101454.73;108141;1288;23816;-81
2023/05/20 03:27:06;;;;;;;26.10;22.80;;;;;;;12.73;74.94;101456.95;108434;1288;22060;-81
2023/05/20 03:30:03;;;;;;;25.70;21.10;;;;;;;12.70;74.90;101459.64;108548;1288;22004;-82
2023/05/20 03:32:49;;;;;;;24.70;22.00;;;;;;;12.70;74.97;101462.79;107842;1292;22014;-80
2023/05/20 03:35:28;;;;;;;24.50;21.50;;;;;;;12.72;75.07;101466.75;108144;1292;22215;-83
2023/05/20 03:38:08;;;;;;;25.10;20.60;;;;;;;12.74;74.88;101463.54;108137;1292;22001;-80
2023/05/20 03:41:03;;;;;;;28.60;21.60;;;;;;;12.78;75.17;101461.69;107730;1296;23652;-82
2023/05/20 03:43:44;;;;;;;25.00;22.00;;;;;;;12.83;75.03;101467.98;107957;1291;22024;-81
2023/05/20 03:46:19;;;;;;;23.70;21.30;;;;;;;12.82;74.93;101471.02;107971;1296;23508;-83
2023/05/20 03:48:51;;;;;;;;;;;;;;;12.80;74.82;101474.02;107485;1300;23797;-82
2023/05/20 03:51:27;;;;;;;26.30;23.40;;;;;;;12.73;75.16;101474.92;107594;1294;22017;-82
2023/05/20 03:54:01;;;;;;;28.10;25.00;;;;;;;12.75;75.14;101474.87;108286;1290;21961;-82
2023/05/20 03:56:48;;;;;;;28.50;25.60;;;;;;;12.76;75.02;101475.88;108362;1290;22014;-82
2023/05/20 03:59:26;;;;;;;28.30;25.30;;;;;;;12.78;75.10;101477.39;108349;1290;23745;-84
2023/05/20 04:02:09;;;;;;;29.00;25.90;;;;;;;12.79;74.90;101477.55;108125;1290;22698;-82
2023/05/20 04:04:51;;;;;;;29.10;26.10;;;;;;;12.79;74.94;101477.20;108403;1282;22126;-79
2023/05/20 04:07:28;;;;;;;28.50;25.60;;;;;;;12.81;74.99;101478.02;108568;1282;23135;-80
2023/05/20 04:10:07;;;;;;;26.60;23.80;;;;;;;12.83;74.88;101476.02;108397;1287;22753;-84
2023/05/20 04:13:12;;;;;;;;;;;;;;;;;;;;;
2023/05/20 04:16:20;;;;;;;24.70;21.40;;;;;;;12.82;74.91;101488.64;108614;1285;22339;-81
2023/05/20 04:19:23;;;;;;;26.40;21.30;;;;;;;12.82;74.84;101490.39;108729;1285;21992;-82
2023/05/20 04:22:00;;;;;;;24.00;21.00;;;;;;;12.83;74.98;101487.92;108714;1285;23068;-82
2023/05/20 04:24:37;;;;;;;23.20;20.70;;;;;;;12.86;75.02;101486.06;108444;1290;23358;-82
2023/05/20 04:27:25;;;;;;;24.80;22.00;;;;;;;12.88;74.82;101491.43;108171;1288;21996;-81
2023/05/20 04:29:57;;;;;;;29.10;23.80;;;;;;;12.91;75.07;101489.97;108209;1290;21996;-80
2023/05/20 04:32:30;;;;;;;24.20;21.60;;;;;;;12.95;75.08;101488.61;107661;1296;23857;-79
2023/05/20 04:35:01;;;;;;;27.50;21.90;;;;;;;13.00;75.07;101491.78;107879;1293;23676;-82
2023/05/20 04:37:39;;;;;;;28.00;20.70;;;;;;;13.03;74.87;101490.29;107978;1293;22009;-80
2023/05/20 04:40:26;;;;;;;21.50;18.90;;;;;;;13.10;74.90;101491.48;107823;1295;22028;-81
2023/05/20 04:43:47;;;;;;;22.00;19.70;;;;;;;13.10;74.74;101489.73;107572;1297;23023;-81
2023/05/20 04:46:29;;;;;;;23.00;19.40;;;;;;;13.10;74.79;101484.50;108034;1293;22031;-82
2023/05/20 04:49:21;;;;;;;21.70;19.50;;;;;;;13.14;74.83;101482.99;107582;1298;22035;-82
2023/05/20 04:51:54;;;;;;;24.90;19.50;;;;;;;13.16;74.70;101479.96;107691;1296;23770;-81
2023/05/20 04:54:24;;;;;;;21.20;18.90;;;;;;;13.16;74.45;101480.64;107538;1296;22017;-81
2023/05/20 04:57:02;;;;;;;23.60;19.70;;;;;;;13.17;74.67;101484.10;107925;1296;22021;-80
2023/05/20 04:59:32;;;;;;;21.70;18.70;;;;;;;13.23;74.83;101481.64;107866;1292;22053;-80
2023/05/20 05:02:01;;;;;;;22.00;18.10;;;;;;;13.28;74.59;101475.73;108231;1287;22325;-80
2023/05/20 05:04:32;;;;;;;21.60;19.40;;;;;;;13.32;74.42;101476.31;108403;1287;21942;-80
2023/05/20 05:07:04;;;;;;;21.00;18.20;;;;;;;13.38;74.62;101478.08;108523;1282;22120;-81
2023/05/20 05:10:02;;;;;;;23.30;19.10;;;;;;;13.43;74.40;101484.05;109033;1275;22008;-80
2023/05/20 05:13:09;;;;;;;22.20;19.20;;;;;;;13.41;74.10;101487.07;109251;1275;21989;-81
2023/05/20 05:16:07;;;;;;;22.40;18.80;;;;;;;13.43;74.11;101488.42;108893;1281;22472;-81
2023/05/20 05:18:50;;;;;;;20.60;18.00;;;;;;;13.43;74.24;101491.36;108451;1287;23764;-80
2023/05/20 05:21:45;;;;;;;21.70;19.30;;;;;;;13.47;73.99;101491.77;108519;1284;23156;-83
2023/05/20 05:24:59;;;;;;;26.10;19.70;;;;;;;13.46;73.96;101493.01;108664;1286;21991;-81
2023/05/20 05:27:49;;;;;;;21.40;18.20;;;;;;;13.49;73.90;101497.13;108735;1286;22139;-82
2023/05/20 05:30:27;;;;;;;23.70;21.20;;;;;;;13.52;73.85;101499.16;108659;1287;22244;-79
2023/05/20 05:33:13;;;;;;;22.90;20.30;;;;;;;13.56;73.75;101503.91;108393;1286;21998;-80
2023/05/20 05:35:47;;;;;;;22.60;20.40;;;;;;;13.57;73.59;101508.77;108688;1283;22019;-80
2023/05/20 05:39:43;;;;;;;23.50;20.70;;;;;;;13.55;73.82;101509.00;108531;1277;22002;-82
2023/05/20 05:42:13;;;;;;;23.20;20.80;;;;;;;13.60;73.85;101510.42;108587;1286;22125;-82
2023/05/20 05:44:48;;;;;;;23.70;21.30;;;;;;;13.69;73.71;101513.84;109053;1279;23653;-81
2023/05/20 05:47:28;;;;;;;24.80;20.90;;;;;;;13.73;73.52;101511.41;108932;1279;22453;-80
2023/05/20 05:50:34;;;;;;;22.20;19.90;;;;;;;13.76;73.46;101509.40;109040;1275;21986;-81
2023/05/20 05:53:48;;;;;;;24.70;21.10;;;;;;;13.79;73.51;101515.40;109332;1275;22404;-81
2023/05/20 05:56:32;;;;;;;26.40;19.90;;;;;;;13.82;73.18;101516.89;108715;1282;22035;-79
2023/05/20 05:59:09;;;;;;;20.70;18.50;;;;;;;13.83;73.09;101516.50;108855;1281;21987;-81
2023/05/20 06:01:48;;;;;;;22.10;19.90;;;;;;;13.85;72.75;101511.02;108798;1281;23653;-80
2023/05/20 06:04:40;;;;;;;20.20;18.00;;;;;;;13.87;72.76;101513.21;108928;1281;21934;-81
2023/05/20 06:07:17;;;;;;;22.40;18.70;;;;;;;13.90;72.40;101514.55;108775;1282;21999;-80
2023/05/20 06:10:08;;;;;;;20.90;18.70;;;;;;;13.92;72.28;101512.01;108675;1287;22456;-81
2023/05/20 06:12:55;;;;;;;21.10;19.20;;;;;;;13.97;72.39;101509.23;108450;1287;24409;-80
2023/05/20 06:15:49;;;;;;;21.60;19.40;;;;;;;14.00;71.85;101507.73;108734;1281;22622;-81
2023/05/20 06:18:42;;;;;;;;;;;;;;;14.01;71.67;101511.70;108897;1281;22001;-80
2023/05/20 06:21:57;;;;;;;24.70;22.00;;;;;;;13.98;71.85;101513.73;108912;1281;23793;-81
2023/05/20 06:25:23;;;;;;;;;;;;;;;;;;;;;
2023/05/20 06:28:47;;;;;;;24.90;22.60;;;;;;;14.08;70.91;101509.05;109250;1274;24313;-80
2023/05/20 06:31:22;;;;;;;24.00;21.90;;;;;;;14.12;70.80;101501.71;108823;1281;22077;-80
2023/05/20 06:33:53;;;;;;;22.90;20.80;;;;;;;14.20;70.64;101497.05;108699;1281;22021;-81
2023/05/20 06:36:23;;;;;;;20.80;18.90;;;;;;;14.28;70.32;101495.75;108899;1282;23745;-80
2023/05/20 06:38:53;;;;;;;19.80;18.00;;;;;;;14.34;69.95;101496.04;108871;1281;22709;-80
2023/05/20 06:41:22;;;;;;;17.60;15.90;;;;;;;14.40;69.70;101492.52;108797;1279;22027;-80
2023/05/20 06:43:52;;;;;;;15.10;13.80;;;;;;;14.44;69.37;101485.73;108876;1281;23099;-80
2023/05/20 06:46:41;;;;;;;16.40;14.70;;;;;;;14.47;68.98;101483.16;108702;1281;22003;-80
2023/05/20 06:49:14;;;;;;;15.40;13.00;;;;;;;14.52;68.34;101479.83;108556;1281;22053;-79
2023/05/20 06:51:43;;;;;;;13.90;12.70;;;;;;;14.56;68.12;101481.61;108680;1281;22100;-81
2023/05/20 06:54:13;;;;;;;15.20;13.80;;;;;;;14.60;67.64;101482.02;108628;1281;22056;-80
2023/05/20 06:56:45;;;;;;;15.30;13.80;;;;;;;14.63;67.37;101482.61;108901;1275;22208;-80
2023/05/20 06:59:16;;;;;;;15.50;14.10;;;;;;;14.69;67.27;101482.23;109090;1274;22431;-80
2023/05/20 07:01:45;;;;;;;11.80;10.70;;;;;;;14.75;67.06;101478.83;109065;1275;21984;-79
2023/05/20 07:04:15;;;;;;;14.40;13.10;;;;;;;14.78;66.58;101477.66;109138;1270;23738;-79
2023/05/20 07:06:45;;;;;;;19.60;17.70;;;;;;;14.80;66.25;101479.52;108539;1282;22454;-79
2023/05/20 07:09:17;;;;;;;14.80;13.40;;;;;;;14.79;66.02;101473.76;108593;1282;23660;-79
2023/05/20 07:11:50;;;;;;;15.60;13.60;;;;;;;14.78;65.92;101470.30;108545;1286;22012;-79
2023/05/20 07:14:27;;;;;;;13.30;11.90;;;;;;;14.80;65.90;101468.33;108469;1286;22023;-81
2023/05/20 07:20:19;;;;;;;9.50;8.70;;;;;;;14.81;65.50;101473.52;108125;1290;23055;-79
2023/05/20 07:23:03;;;;;;;10.30;9.50;;;;;;;14.79;65.22;101473.59;107776;1295;22011;-84
2023/05/20 07:25:44;;;;;;;10.30;9.30;;;;;;;14.82;65.16;101472.77;108030;1289;23770;-79
2023/05/20 07:28:18;;;;;;;10.10;8.90;;;;;;;14.87;65.08;101471.89;108199;1289;21997;-82
2023/05/20 07:30:56;;;;;;;12.00;10.90;;;;;;;14.93;64.73;101471.50;107807;1294;22005;-78
2023/05/20 07:33:29;;;;;;;13.70;12.40;;;;;;;14.99;64.69;101471.11;107814;1294;23676;-79
2023/05/20 07:36:03;;;;;;;12.60;11.50;;;;;;;15.07;64.83;101468.52;107792;1286;23649;-79
2023/05/20 07:38:33;;;;;;;11.30;10.10;;;;;;;15.12;64.74;101464.44;108278;1286;23731;-78
2023/05/20 07:41:08;;;;;;;12.90;11.50;;;;;;;15.15;64.48;101462.08;108536;1281;21997;-78
2023/05/20 07:43:39;;;;;;;14.60;12.50;;;;;;;15.22;64.64;101468.45;108607;1281;21989;-80
2023/05/20 07:46:25;;;;;;;12.40;11.00;;;;;;;15.31;64.33;101467.60;108693;1281;23144;-77
2023/05/20 07:49:01;;;;;;;13.80;11.50;;;;;;;15.36;64.14;101462.61;108777;1275;22000;-78
2023/05/20 07:51:40;;;;;;;13.50;12.20;;;;;;;15.43;64.12;101460.79;109093;1273;23653;-80
2023/05/20 07:54:16;;;;;;;13.70;11.50;;;;;;;15.55;64.12;101459.60;109347;1275;22282;-79
2023/05/20 07:56:51;;;;;;;11.30;10.20;;;;;;;15.73;64.22;101459.23;109316;1275;22002;-79
2023/05/20 07:59:22;;;;;;;11.00;9.80;;;;;;;15.90;63.66;101458.69;109360;1275;23727;-81
2023/05/20 08:01:52;;;;;;;10.50;9.60;;;;;;;16.00;62.72;101456.32;109067;1275;23792;-80
2023/05/20 08:04:23;;;;;;;11.90;10.20;;;;;;;16.02;62.00;101453.61;109240;1270;21992;-81
2023/05/20 08:06:55;;;;;;;12.50;9.90;;;;;;;16.04;61.79;101450.89;109268;1275;21982;-81
2023/05/20 08:09:34;;;;;;;11.10;10.00;;;;;;;16.05;61.67;101452.42;109178;1275;22018;-81
2023/05/20 08:12:12;;;;;;;13.00;10.10;;;;;;;16.08;61.42;101450.55;109181;1275;21993;-80
2023/05/20 08:14:46;;;;;;;10.70;9.60;;;;;;;16.10;61.16;101446.96;109307;1275;23036;-80
2023/05/20 08:17:16;;;;;;;12.60;11.40;;;;;;;16.11;61.04;101445.68;108984;1274;23140;-81
2023/05/20 08:19:46;;;;;;;14.80;11.80;;;;;;;16.12;61.05;101444.93;109136;1275;21996;-80
2023/05/20 08:22:16;;;;;;;12.00;10.90;;;;;;;16.11;60.82;101446.92;109362;1273;22007;-79
2023/05/20 08:24:46;;;;;;;13.20;11.50;;;;;;;16.07;60.88;101444.13;109220;1275;21978;-79
2023/05/20 08:27:21;;;;;;;12.50;11.30;;;;;;;16.05;61.01;101445.41;108939;1275;23733;-80
2023/05/20 08:29:53;;;;;;;14.80;11.60;;;;;;;16.06;61.14;101447.14;109430;1275;23689;-80
2023/05/20 08:32:24;;;;;;;15.00;13.20;;;;;;;16.11;61.19;101450.80;109340;1275;22105;-82
2023/05/20 08:35:00;;;;;;;14.10;12.70;;;;;;;16.09;60.68;101452.11;108812;1281;23062;-79
2023/05/20 08:37:34;;;;;;;15.80;13.00;;;;;;;16.04;60.80;101450.20;108821;1281;22527;-80
2023/05/20 08:40:06;;;;;;;15.80;13.50;;;;;;;16.03;60.65;101450.44;108613;1284;22994;-80
2023/05/20 08:42:42;;;;;;;15.60;13.30;;;;;;;15.99;60.73;101452.35;108545;1284;22004;-80
2023/05/20 08:45:18;;;;;;;17.00;15.40;;;;;;;15.96;60.91;101449.34;108661;1279;21997;-81
2023/05/20 08:47:53;;;;;;;16.50;14.90;;;;;;;15.95;61.17;101451.63;109047;1281;21992;-80
2023/05/20 08:50:26;;;;;;;16.60;14.30;;;;;;;15.98;60.86;101455.71;108606;1280;23016;-79
2023/05/20 08:52:58;;;;;;;16.10;14.70;;;;;;;15.90;60.68;101453.97;108790;1277;22005;-81
2023/05/20 08:56:15;;;;;;;21.40;19.50;;;;;;;15.86;61.11;101450.82;108615;1281;23718;-80
2023/05/20 08:58:47;;;;;;;15.80;14.20;;;;;;;15.84;61.37;101454.05;108379;1285;22024;-79
2023/05/20 09:01:44;;;;;;;16.10;14.70;;;;;;;15.89;61.56;101454.19;108484;1289;21999;-81
2023/05/20 09:04:27;;;;;;;;;;;;;;;15.95;61.53;101451.98;108333;1286;21994;-81
2023/05/20 09:06:58;;;;;;;14.20;12.70;;;;;;;15.89;61.81;101447.51;108391;1286;22254;-80
2023/05/20 09:09:30;;;;;;;14.70;13.30;;;;;;;15.98;61.77;101442.73;108515;1289;23097;-81
2023/05/20 09:12:12;;;;;;;16.30;14.70;;;;;;;16.09;61.66;101446.29;108687;1283;24065;-79
2023/05/20 09:14:44;;;;;;;;;;;;;;;16.16;61.43;101450.55;108961;1280;21990;-79
2023/05/20 09:17:20;;;;;;;16.50;13.30;;;;;;;16.11;61.30;101454.27;108907;1279;22246;-79
2023/05/20 09:19:58;;;;;;;14.90;13.50;;;;;;;16.12;61.36;101448.61;108906;1278;23763;-81
2023/05/20 09:22:31;;;;;;;15.60;14.30;;;;;;;16.21;61.32;101452.64;108942;1281;22885;-78
2023/05/20 09:25:02;;;;;;;16.60;15.10;;;;;;;16.26;61.17;101451.71;108719;1281;22902;-80
2023/05/20 09:27:32;;;;;;;15.20;13.90;;;;;;;16.31;60.93;101450.59;108773;1278;22066;-81
2023/05/20 09:30:12;;;;;;;15.30;13.90;;;;;;;16.32;60.66;101454.59;109075;1279;22069;-82
2023/05/20 09:32:43;;;;;;;15.80;14.60;;;;;;;16.32;60.55;101455.30;108912;1278;23730;-81
2023/05/20 09:35:16;;;;;;;15.90;14.30;;;;;;;16.37;60.66;101452.80;108990;1270;22020;-82
2023/05/20 09:37:55;;;;;;;16.00;14.50;;;;;;;16.52;60.77;101448.79;109421;1275;22023;-83
2023/05/20 09:40:28;;;;;;;15.00;13.70;;;;;;;16.66;60.41;101452.37;109533;1275;21982;-83
2023/05/20 09:43:10;;;;;;;15.60;14.00;;;;;;;16.70;60.03;101453.77;109629;1272;21978;-79
2023/05/20 09:45:41;;;;;;;15.60;14.20;;;;;;;16.73;59.92;101453.61;109449;1271;22131;-80
2023/05/20 09:48:13;;;;;;;16.50;15.00;;;;;;;16.80;59.82;101455.27;108714;1277;22014;-80
2023/05/20 09:50:51;;;;;;;15.90;14.40;;;;;;;16.83;59.75;101453.89;109044;1277;23857;-79
2023/05/20 09:53:27;;;;;;;16.90;15.10;;;;;;;16.86;59.57;101455.54;108480;1283;22041;-82
2023/05/20 09:56:00;;;;;;;18.20;16.30;;;;;;;16.84;59.25;101448.77;108663;1285;23130;-80
2023/05/20 09:58:37;;;;;;;17.10;15.50;;;;;;;16.82;59.20;101444.64;108664;1283;22360;-79
2023/05/20 10:01:12;;;;;;;18.10;15.20;;;;;;;16.77;59.07;101441.68;108221;1287;22035;-81
2023/05/20 10:03:51;;;;;;;16.30;14.60;;;;;;;16.77;59.63;101438.48;108149;1290;24101;-80
2023/05/20 10:07:04;;;;;;;16.30;14.80;;;;;;;16.99;60.15;101434.89;108289;1292;22552;-80
2023/05/20 10:10:52;;;;;;;;;;;;;;;17.19;59.56;101433.73;108161;1292;22004;-81
2023/05/20 10:14:16;;;;;;;17.10;15.50;;;;;;;17.17;59.31;101427.67;109097;1281;22757;-80
2023/05/20 10:17:43;;;;;;;15.40;13.90;;;;;;;17.23;59.29;101422.48;108880;1285;22684;-83
2023/05/20 10:20:17;;;;;;;18.00;16.30;;;;;;;17.29;59.11;101421.46;108916;1285;22001;-83
2023/05/20 10:23:19;;;;;;;19.20;17.40;;;;;;;17.29;58.86;101420.39;108673;1283;24655;-80
2023/05/20 10:26:08;;;;;;;19.90;18.20;;;;;;;17.21;58.72;101417.81;108698;1287;22010;-82
2023/05/20 10:28:40;;;;;;;17.50;15.80;;;;;;;17.19;58.72;101414.39;108674;1289;22016;-80
2023/05/20 10:31:26;;;;;;;16.90;15.30;;;;;;;17.28;58.96;101417.63;108608;1289;22046;-82
2023/05/20 10:34:22;;;;;;;19.00;17.30;;;;;;;17.20;58.70;101416.80;108567;1289;22008;-80
2023/05/20 10:37:04;;;;;;;19.20;17.30;;;;;;;17.08;58.81;101411.42;108500;1283;22845;-80
2023/05/20 10:39:38;;;;;;;17.60;16.10;;;;;;;17.04;58.96;101410.21;108545;1289;22004;-81
2023/05/20 10:42:17;;;;;;;16.80;15.20;;;;;;;17.07;59.51;101404.45;108845;1278;22016;-82
2023/05/20 10:44:53;;;;;;;16.10;14.10;;;;;;;17.18;59.80;101403.38;109109;1278;23678;-81
2023/05/20 10:47:27;;;;;;;16.70;15.10;;;;;;;17.28;59.66;101397.42;109308;1275;21993;-79
2023/05/20 10:50:28;;;;;;;17.00;15.40;;;;;;;17.38;59.32;101400.65;109088;1278;22670;-80
2023/05/20 10:53:06;;;;;;;18.20;16.40;;;;;;;17.37;58.86;101400.50;109037;1279;22750;-82
2023/05/20 10:55:51;;;;;;;17.50;15.90;;;;;;;17.35;58.96;101396.02;108967;1278;21997;-81
2023/05/20 10:58:40;;;;;;;17.20;15.60;;;;;;;17.39;59.36;101393.52;109145;1278;22090;-80
2023/05/20 11:01:19;;;;;;;17.90;16.40;;;;;;;17.56;59.44;101386.91;108883;1283;21988;-80
2023/05/20 11:04:02;;;;;;;16.70;15.20;;;;;;;17.65;58.73;101388.17;108862;1283;22014;-81
2023/05/20 11:07:01;;;;;;;17.30;15.50;;;;;;;17.76;58.87;101386.39;108904;1283;21989;-82
2023/05/20 11:09:48;;;;;;;18.20;16.40;;;;;;;17.94;58.55;101380.23;109009;1283;21998;-82
2023/05/20 11:12:25;;;;;;;17.90;16.10;;;;;;;18.09;58.11;101379.58;108841;1283;22020;-83
2023/05/20 11:15:11;;;;;;;18.10;16.50;;;;;;;18.11;57.36;101376.86;109020;1280;23051;-82
2023/05/20 11:17:57;;;;;;;18.50;16.80;;;;;;;18.01;57.39;101373.32;109128;1271;23046;-81
2023/05/20 11:20:45;;;;;;;19.50;17.80;;;;;;;17.97;57.43;101370.18;109431;1275;24399;-81
2023/05/20 11:23:26;;;;;;;20.20;18.10;;;;;;;17.94;57.71;101366.11;109316;1275;23729;-82
2023/05/20 11:26:04;;;;;;;20.20;18.10;;;;;;;18.02;58.09;101370.48;109337;1275;23751;-81
2023/05/20 11:28:39;;;;;;;19.40;17.50;;;;;;;18.17;58.12;101372.29;109384;1275;21990;-80
2023/05/20 11:31:17;;;;;;;18.60;16.90;;;;;;;18.28;57.65;101369.28;109345;1275;21981;-79
2023/05/20 11:34:01;;;;;;;18.90;17.00;;;;;;;18.37;57.77;101366.66;109266;1275;22999;-80
2023/05/20 11:36:44;;;;;;;19.50;17.20;;;;;;;18.53;57.58;101361.39;109291;1274;23678;-81
2023/05/20 11:39:24;;;;;;;18.30;16.70;;;;;;;18.65;57.32;101357.01;109287;1275;22136;-80
2023/05/20 11:42:27;;;;;;;18.50;16.70;;;;;;;18.71;56.82;101357.55;109388;1275;23039;-79
2023/05/20 11:45:23;;;;;;;19.60;17.70;;;;;;;18.75;56.93;101353.98;109396;1274;22096;-81
2023/05/20 11:48:16;;;;;;;18.60;16.90;;;;;;;18.81;56.69;101357.40;109347;1275;23644;-81
2023/05/20 11:51:02;;;;;;;23.10;21.00;;;;;;;18.82;56.70;101355.05;109471;1266;21980;-79
2023/05/20 11:53:40;;;;;;;21.10;19.00;;;;;;;18.85;56.46;101350.82;109246;1275;22406;-80
2023/05/20 11:56:13;;;;;;;19.00;17.00;;;;;;;18.80;56.32;101346.86;109337;1268;23733;-79
2023/05/20 11:58:45;;;;;;;21.00;19.00;;;;;;;18.83;56.50;101348.97;109110;1275;23630;-79
2023/05/20 12:01:18;;;;;;;21.10;19.20;;;;;;;18.86;56.51;101344.60;109286;1267;23066;-80
2023/05/20 12:03:57;;;;;;;20.00;17.90;;;;;;;18.85;56.17;101339.16;109381;1275;21991;-79
2023/05/20 12:06:30;;;;;;;19.70;17.90;;;;;;;18.78;56.24;101338.33;109291;1275;22102;-80
2023/05/20 12:09:05;;;;;;;19.20;17.30;;;;;;;18.77;56.50;101336.27;109508;1275;21990;-80
2023/05/20 12:11:42;;;;;;;18.60;16.70;;;;;;;18.79;56.66;101336.84;109384;1275;22015;-81
2023/05/20 12:14:20;;;;;;;21.40;17.30;;;;;;;18.78;56.62;101338.31;109418;1275;22245;-80
2023/05/20 12:16:52;;;;;;;18.80;16.60;;;;;;;18.80;56.57;101338.72;109235;1275;22040;-79
2023/05/20 12:19:25;;;;;;;19.70;17.70;;;;;;;18.77;56.31;101333.60;109126;1275;21990;-80
2023/05/20 12:21:55;;;;;;;21.30;19.40;;;;;;;18.69;56.30;101324.86;108998;1279;21955;-80
2023/05/20 12:24:24;;;;;;;19.20;17.40;;;;;;;18.72;56.87;101323.97;108858;1285;24390;-80
2023/05/20 12:26:59;;;;;;;;;;;;;;;18.77;56.90;101321.09;108654;1285;21984;-80